KMER/MER METAR and TAF weather

Enter ICAO airport designator
Station Type Date Time Source
KMER METAR 2021/08/01 15:45 UTC NOAA

KMER 011545Z 30005KT 10SM SKC 26/11 A3002


Station Type Date Time Source
KMER Decoded METAR 2021/08/01 15:45 UTC NOAA

Merced / Castle Air Force Base, CA, United States (KMER) 37-22N 120-34W 60M
Aug 01, 2021 - 11:45 AM EDT / 2021.08.01 1545 UTC
Wind: from the WNW (300 degrees) at 6 MPH (5 KT):0
Visibility: 10 mile(s):0
Sky conditions: clear
Temperature: 78 F (26 C)
Dew Point: 51 F (11 C)
Relative Humidity: 39%
Pressure (altimeter): 30.02 in. Hg (1016 hPa)
ob: KMER 011545Z 30005KT 10SM SKC 26/11 A3002
cycle: 16

Station Type Date Time Source
KMER TAF 2021/08/01 12:46 UTC NOAA

TAF KMER 011137Z 0112/0212 31006KT P6SM FEW200

Example: see airport list